Time;durP1;ratioP1;P1;durP2;ratioP2;P2;SDS_P1;SDS_P2;PMS_P1;PMS_P2;Temp;Humidity;BMP_temperature;BMP_pressure;BME280_temperature;BME280_humidity;BME280_pressure;Samples;Min_cycle;Max_cycle;Signal;HPM_P1;HPM_P2
2023/01/23 00:01:35;;;;;;;15.48;6.70;;;9.70;95.70;;;;;;5027494;28;20439;-80
2023/01/23 00:04:05;;;;;;;16.03;7.00;;;9.70;95.80;;;;;;5015867;28;20199;-77
2023/01/23 00:06:35;;;;;;;15.50;6.37;;;9.60;95.80;;;;;;5014879;28;20203;-79
2023/01/23 00:09:07;;;;;;;13.63;6.80;;;9.70;95.90;;;;;;5028493;28;20215;-81
2023/01/23 00:11:35;;;;;;;17.30;6.67;;;9.70;96.00;;;;;;5012374;28;20187;-79
2023/01/23 00:14:04;;;;;;;13.00;5.83;;;9.60;95.90;;;;;;5011300;28;20285;-79
2023/01/23 00:16:33;;;;;;;14.33;6.43;;;9.60;96.00;;;;;;5023159;28;20604;-80
2023/01/23 00:19:01;;;;;;;14.00;6.77;;;9.60;96.00;;;;;;5030607;28;20265;-80
2023/01/23 00:21:30;;;;;;;14.70;6.40;;;9.60;95.90;;;;;;5031860;28;20199;-80
2023/01/23 00:24:01;;;;;;;14.03;6.20;;;9.60;96.00;;;;;;5024231;28;20241;-80
2023/01/23 00:26:32;;;;;;;13.00;6.35;;;9.60;96.00;;;;;;5030314;28;20677;-80
2023/01/23 00:29:02;;;;;;;9.77;5.37;;;9.60;96.10;;;;;;5025639;28;20275;-80
2023/01/23 00:31:32;;;;;;;10.43;5.00;;;9.50;96.10;;;;;;5025776;28;20195;-79
2023/01/23 00:34:03;;;;;;;12.20;4.90;;;9.50;96.10;;;;;;5017662;28;20238;-78
2023/01/23 00:36:34;;;;;;;12.63;5.60;;;9.50;96.00;;;;;;5021236;28;20201;-79
2023/01/23 00:39:06;;;;;;;11.60;5.47;;;9.40;95.90;;;;;;5021830;28;20208;-80
2023/01/23 00:41:34;;;;;;;12.43;5.00;;;9.50;95.90;;;;;;5022904;28;20237;-80
2023/01/23 00:44:03;;;;;;;11.00;5.40;;;9.40;95.90;;;;;;5031383;28;20198;-80
2023/01/23 00:46:31;;;;;;;13.17;5.17;;;9.40;95.90;;;;;;5028276;28;20206;-80
2023/01/23 00:49:00;;;;;;;16.25;6.20;;;9.40;95.90;;;;;;5027578;28;20510;-79
2023/01/23 00:51:28;;;;;;;15.33;5.40;;;9.40;95.90;;;;;;5024512;28;20569;-80
2023/01/23 00:53:57;;;;;;;11.70;4.47;;;9.40;95.90;;;;;;5023158;28;20770;-80
2023/01/23 00:56:26;;;;;;;10.47;4.40;;;9.40;96.00;;;;;;5024291;28;20208;-80
2023/01/23 00:58:55;;;;;;;9.07;4.17;;;9.40;95.90;;;;;;5025673;28;20614;-80
2023/01/23 01:01:23;;;;;;;8.77;3.80;;;9.40;95.90;;;;;;5023551;28;20258;-77
2023/01/23 01:03:52;;;;;;;8.80;3.90;;;9.30;95.70;;;;;;5018257;28;20254;-79
2023/01/23 01:06:20;;;;;;;7.37;3.33;;;9.20;95.60;;;;;;5021676;28;20227;-81
2023/01/23 01:08:49;;;;;;;9.67;4.03;;;9.20;95.60;;;;;;5018826;28;20254;-80
2023/01/23 01:11:17;;;;;;;7.13;3.40;;;9.20;95.60;;;;;;5024569;28;20199;-79
2023/01/23 01:13:47;;;;;;;6.90;3.33;;;9.20;95.60;;;;;;5015892;28;20228;-80
2023/01/23 01:16:16;;;;;;;10.53;3.77;;;9.10;95.60;;;;;;5018090;28;20266;-80
2023/01/23 01:18:44;;;;;;;9.47;3.63;;;9.20;95.70;;;;;;5011684;28;20584;-79
2023/01/23 01:21:14;;;;;;;8.47;4.03;;;9.20;95.70;;;;;;5014450;28;20258;-80
2023/01/23 01:23:43;;;;;;;8.30;3.47;;;9.10;95.70;;;;;;5026101;28;20196;-80
2023/01/23 01:26:11;;;;;;;9.80;3.60;;;9.10;95.80;;;;;;5023394;28;20239;-80
2023/01/23 01:28:42;;;;;;;8.90;3.77;;;9.20;95.80;;;;;;5023236;28;20327;-79
2023/01/23 01:31:14;;;;;;;8.70;3.67;;;9.10;95.70;;;;;;5017827;28;20204;-80
2023/01/23 01:33:43;;;;;;;7.20;3.37;;;9.10;95.70;;;;;;5011844;28;20611;-81
2023/01/23 01:36:13;;;;;;;8.07;3.50;;;9.10;95.70;;;;;;5018657;28;20203;-80
2023/01/23 01:38:42;;;;;;;7.20;3.87;;;9.10;95.80;;;;;;5012691;28;20200;-80
2023/01/23 01:41:11;;;;;;;8.40;3.47;;;9.10;95.80;;;;;;5024434;28;20603;-80
2023/01/23 01:43:39;;;;;;;8.00;3.20;;;9.10;95.80;;;;;;5014610;28;20199;-80
2023/01/23 01:46:12;;;;;;;12.17;4.30;;;9.00;95.80;;;;;;5026439;28;20254;-80
2023/01/23 01:48:45;;;;;;;9.37;4.40;;;9.10;95.80;;;;;;5017437;28;20201;-79
2023/01/23 01:51:21;;;;;;;6.60;3.33;;;9.00;95.90;;;;;;5018082;28;20594;-80
2023/01/23 01:54:01;;;;;;;10.13;4.20;;;9.00;95.80;;;;;;5027026;28;20250;-78
2023/01/23 01:56:30;;;;;;;8.40;3.63;;;9.00;95.70;;;;;;5026831;28;20214;-79
2023/01/23 01:58:59;;;;;;;9.63;3.73;;;9.00;95.70;;;;;;5019577;28;20207;-80
2023/01/23 02:01:29;;;;;;;9.30;3.67;;;9.00;95.80;;;;;;5022713;28;20234;-80
2023/01/23 02:03:58;;;;;;;8.40;4.20;;;9.00;95.80;;;;;;5016739;28;20557;-78
2023/01/23 02:06:27;;;;;;;8.33;3.53;;;8.90;95.70;;;;;;5020399;28;21228;-80
2023/01/23 02:09:02;;;;;;;9.97;3.87;;;9.00;95.70;;;;;;5024500;28;20648;-80
2023/01/23 02:11:31;;;;;;;9.17;4.00;;;9.00;95.70;;;;;;5024035;28;20195;-79
2023/01/23 02:13:59;;;;;;;7.73;3.70;;;9.00;95.70;;;;;;5028117;28;20300;-80
2023/01/23 02:16:38;;;;;;;12.33;4.30;;;8.90;95.60;;;;;;5024015;28;20255;-79
2023/01/23 02:19:20;;;;;;;8.73;3.43;;;8.90;95.60;;;;;;5021476;28;20279;-81
2023/01/23 02:21:52;;;;;;;6.03;2.90;;;8.90;95.50;;;;;;5021649;28;20192;-81
2023/01/23 02:24:30;;;;;;;6.57;3.17;;;8.90;95.40;;;;;;5038544;28;20188;-79
2023/01/23 02:26:59;;;;;;;8.17;3.23;;;8.80;95.40;;;;;;5023242;28;20246;-81
2023/01/23 02:29:40;;;;;;;9.27;4.03;;;8.80;95.40;;;;;;5022088;28;20234;-79
2023/01/23 02:32:09;;;;;;;5.87;3.00;;;8.80;95.30;;;;;;5019775;28;20192;-79
2023/01/23 02:34:37;;;;;;;11.23;3.87;;;8.70;95.40;;;;;;5029027;28;20222;-80
2023/01/23 02:37:08;;;;;;;12.93;4.13;;;8.80;95.40;;;;;;5022588;28;20263;-79
2023/01/23 02:39:38;;;;;;;9.00;3.90;;;8.70;95.50;;;;;;5024563;28;20203;-78
2023/01/23 02:42:08;;;;;;;11.57;3.97;;;8.70;95.50;;;;;;5023515;28;20261;-80
2023/01/23 02:44:36;;;;;;;7.53;3.63;;;8.70;95.60;;;;;;5031580;28;20200;-82
2023/01/23 02:47:10;;;;;;;9.77;3.57;;;8.60;95.50;;;;;;5018616;28;20269;-78
2023/01/23 02:49:39;;;;;;;9.53;3.67;;;8.60;95.60;;;;;;5022990;28;20544;-79
2023/01/23 02:52:08;;;;;;;8.77;3.30;;;8.60;95.60;;;;;;5023653;28;20203;-80
2023/01/23 02:54:38;;;;;;;9.67;3.83;;;8.60;95.60;;;;;;5023525;28;20778;-80
2023/01/23 02:57:08;;;;;;;4.93;2.60;;;8.50;95.80;;;;;;5025221;28;20262;-79
2023/01/23 03:02:22;;;;;;;7.43;3.30;;;8.50;95.80;;;;;;5020800;28;20250;-79
2023/01/23 03:04:50;;;;;;;7.53;3.40;;;8.60;95.80;;;;;;5027897;28;20220;-78
2023/01/23 03:07:18;;;;;;;8.68;3.88;;;8.50;95.70;;;;;;5024656;28;20516;-78
2023/01/23 03:09:47;;;;;;;6.87;3.10;;;8.60;96.00;;;;;;5030374;28;20207;-80
2023/01/23 03:12:17;;;;;;;11.07;3.67;;;8.50;95.90;;;;;;5027890;28;21434;-80
2023/01/23 03:14:45;;;;;;;7.67;3.90;;;8.50;95.80;;;;;;5032244;28;20223;-79
2023/01/23 03:17:14;;;;;;;8.00;3.50;;;8.50;95.80;;;;;;5019237;28;20440;-78
2023/01/23 03:19:43;;;;;;;7.63;3.60;;;8.50;95.80;;;;;;5028501;28;20203;-79
2023/01/23 03:22:11;;;;;;;7.53;3.33;;;8.40;95.80;;;;;;5017441;28;20193;-81
2023/01/23 03:24:40;;;;;;;7.57;3.07;;;8.40;95.80;;;;;;5020767;28;20195;-80
2023/01/23 03:27:08;;;;;;;7.13;3.00;;;8.50;95.70;;;;;;5024503;28;20215;-79
2023/01/23 03:32:24;;;;;;;8.87;2.83;;;8.50;95.90;;;;;;5012606;28;20530;-80
2023/01/23 03:34:53;;;;;;;7.40;3.20;;;8.40;95.90;;;;;;5006373;28;20607;-81
2023/01/23 03:37:21;;;;;;;7.80;3.00;;;8.40;95.80;;;;;;5019919;28;20208;-80
2023/01/23 03:42:36;;;;;;;7.10;2.93;;;8.50;95.80;;;;;;5024581;28;20241;-79
2023/01/23 03:45:07;;;;;;;6.23;2.40;;;8.50;95.80;;;;;;5030128;28;20204;-81
2023/01/23 03:47:36;;;;;;;5.60;2.80;;;8.40;95.70;;;;;;5016925;28;20207;-79
2023/01/23 03:50:06;;;;;;;5.80;2.80;;;8.40;95.70;;;;;;5016904;28;20609;-80
2023/01/23 03:52:36;;;;;;;7.33;3.53;;;8.40;95.70;;;;;;5008655;28;20235;-81
2023/01/23 03:55:05;;;;;;;7.10;3.23;;;8.40;95.60;;;;;;4989514;28;20696;-80
2023/01/23 03:57:34;;;;;;;5.33;2.60;;;8.40;95.60;;;;;;4993506;28;20275;-80
2023/01/23 04:00:03;;;;;;;7.50;2.73;;;8.40;95.60;;;;;;4992759;28;20200;-80
2023/01/23 04:02:33;;;;;;;5.37;2.17;;;8.40;95.50;;;;;;4994916;28;20204;-81
2023/01/23 04:05:02;;;;;;;7.57;2.90;;;8.40;95.40;;;;;;4993515;28;20200;-81
2023/01/23 04:07:30;;;;;;;6.20;2.63;;;8.40;95.40;;;;;;5005642;28;20678;-81
2023/01/23 04:09:58;;;;;;;6.87;2.83;;;8.40;95.40;;;;;;5000966;28;20193;-80
2023/01/23 04:12:27;;;;;;;7.70;3.20;;;8.40;95.20;;;;;;4993114;28;20552;-80
2023/01/23 04:14:55;;;;;;;8.40;3.00;;;8.30;95.10;;;;;;4997331;28;20262;-80
2023/01/23 04:17:24;;;;;;;5.50;2.63;;;8.30;95.10;;;;;;5007983;28;20227;-80
2023/01/23 04:19:53;;;;;;;6.40;2.50;;;8.30;95.00;;;;;;5007664;28;20704;-81
2023/01/23 04:22:22;;;;;;;3.57;2.07;;;8.20;94.80;;;;;;5002914;28;20201;-80
2023/01/23 04:24:50;;;;;;;4.93;2.30;;;8.20;94.90;;;;;;5000476;28;20371;-80
2023/01/23 04:27:18;;;;;;;4.87;2.57;;;8.20;95.00;;;;;;5001250;28;20282;-79
2023/01/23 04:29:47;;;;;;;6.83;2.63;;;8.20;95.00;;;;;;4999449;28;20914;-80
2023/01/23 04:32:16;;;;;;;6.33;2.80;;;8.20;94.90;;;;;;5002357;28;20780;-79
2023/01/23 04:34:44;;;;;;;6.07;2.63;;;8.30;95.00;;;;;;5001165;28;20251;-81
2023/01/23 04:37:14;;;;;;;6.33;2.17;;;8.30;94.90;;;;;;5005154;28;21298;-80
2023/01/23 04:39:42;;;;;;;4.90;2.50;;;8.20;94.80;;;;;;5002046;28;20196;-78
2023/01/23 04:42:11;;;;;;;5.90;2.63;;;8.20;94.80;;;;;;5007130;28;20612;-79
2023/01/23 04:44:39;;;;;;;6.17;3.10;;;8.20;94.80;;;;;;5002627;28;20806;-79
2023/01/23 04:47:08;;;;;;;4.57;2.40;;;8.20;94.90;;;;;;5001515;28;20797;-80
2023/01/23 04:49:37;;;;;;;7.83;2.37;;;8.20;94.80;;;;;;4998752;28;20205;-80
2023/01/23 04:52:05;;;;;;;4.50;2.17;;;8.20;94.90;;;;;;4997649;28;20209;-78
2023/01/23 04:54:35;;;;;;;5.43;2.27;;;8.20;94.90;;;;;;4996327;28;20754;-80
2023/01/23 04:57:03;;;;;;;6.67;2.67;;;8.20;94.80;;;;;;5005448;28;20215;-80
2023/01/23 04:59:31;;;;;;;6.22;3.17;;;8.20;94.80;;;;;;4997260;28;20613;-80
2023/01/23 05:02:02;;;;;;;4.93;2.43;;;8.20;95.00;;;;;;4997403;28;20720;-80
2023/01/23 05:04:30;;;;;;;5.80;3.03;;;8.20;95.00;;;;;;5004002;28;20194;-79
2023/01/23 05:06:59;;;;;;;6.10;2.50;;;8.10;94.90;;;;;;4991250;28;20247;-81
2023/01/23 05:09:27;;;;;;;5.30;2.30;;;8.10;94.70;;;;;;4980310;28;20223;-81
2023/01/23 05:11:57;;;;;;;6.50;2.88;;;8.10;94.60;;;;;;4996289;28;20551;-81
2023/01/23 05:14:25;;;;;;;5.53;2.40;;;8.10;94.90;;;;;;5005867;28;20250;-79
2023/01/23 05:16:54;;;;;;;4.07;1.97;;;8.00;94.80;;;;;;5004780;28;20205;-81
2023/01/23 05:19:22;;;;;;;5.67;2.30;;;8.10;94.80;;;;;;5000086;28;20216;-79
2023/01/23 05:21:51;;;;;;;5.53;2.30;;;8.10;94.90;;;;;;5000179;28;20200;-78
2023/01/23 05:24:19;;;;;;;4.87;2.33;;;8.10;94.90;;;;;;5009361;28;20739;-80
2023/01/23 05:26:47;;;;;;;5.10;2.33;;;8.10;94.90;;;;;;5019982;28;20200;-80
2023/01/23 05:29:20;;;;;;;5.93;2.30;;;8.00;94.80;;;;;;4999489;28;20677;-80
2023/01/23 05:31:48;;;;;;;5.10;2.60;;;8.00;94.80;;;;;;5005497;28;20196;-79
2023/01/23 05:34:17;;;;;;;4.90;2.30;;;8.00;94.80;;;;;;5008336;28;20204;-79
2023/01/23 05:36:45;;;;;;;5.47;2.90;;;8.00;94.70;;;;;;4999607;28;20254;-81
2023/01/23 05:39:13;;;;;;;7.90;2.83;;;8.00;94.70;;;;;;4994307;28;20243;-82
2023/01/23 05:41:42;;;;;;;7.60;3.13;;;8.00;94.80;;;;;;4998314;28;20231;-79
2023/01/23 05:44:10;;;;;;;5.53;2.50;;;8.00;94.70;;;;;;4997078;28;20200;-79
2023/01/23 05:46:40;;;;;;;5.90;2.70;;;7.90;94.50;;;;;;5003454;28;20243;-79
2023/01/23 05:49:08;;;;;;;4.57;2.53;;;7.90;94.30;;;;;;5005318;28;20254;-82
2023/01/23 05:51:37;;;;;;;7.80;2.80;;;7.90;94.20;;;;;;5006327;28;20208;-80
2023/01/23 05:54:05;;;;;;;3.70;2.07;;;7.90;94.30;;;;;;5004357;28;20243;-79
2023/01/23 05:56:33;;;;;;;5.40;2.70;;;7.90;94.00;;;;;;5007089;28;20220;-79
2023/01/23 05:59:02;;;;;;;6.40;2.30;;;7.80;94.00;;;;;;5001606;28;20220;-80
2023/01/23 06:01:30;;;;;;;4.03;1.87;;;7.80;94.10;;;;;;4998244;28;20238;-80
2023/01/23 06:04:00;;;;;;;5.70;2.40;;;7.80;94.00;;;;;;5003784;28;20204;-79
2023/01/23 06:06:29;;;;;;;5.50;2.33;;;7.80;94.00;;;;;;5005586;28;20197;-78
2023/01/23 06:08:59;;;;;;;5.33;2.50;;;7.70;93.90;;;;;;5004381;28;20258;-79
2023/01/23 06:11:27;;;;;;;4.30;2.20;;;7.70;93.80;;;;;;5014244;28;20203;-80
2023/01/23 06:13:56;;;;;;;5.77;2.57;;;7.80;93.90;;;;;;5007863;28;20297;-82
2023/01/23 06:16:24;;;;;;;4.80;2.60;;;7.80;93.70;;;;;;5005750;28;20632;-81
2023/01/23 06:18:53;;;;;;;4.87;2.53;;;7.80;93.60;;;;;;5002694;28;20270;-79
2023/01/23 06:21:23;;;;;;;5.03;2.40;;;7.80;93.50;;;;;;5005280;28;20205;-80
2023/01/23 06:23:51;;;;;;;5.37;3.00;;;7.70;93.20;;;;;;5006701;28;20234;-79
2023/01/23 06:26:20;;;;;;;5.20;2.77;;;7.70;93.00;;;;;;5015958;28;20196;-81
2023/01/23 06:28:49;;;;;;;6.27;2.60;;;7.70;92.80;;;;;;5010887;28;20203;-79
2023/01/23 06:31:17;;;;;;;7.27;3.20;;;7.60;93.00;;;;;;5016102;28;20207;-80
2023/01/23 06:33:51;;;;;;;9.27;3.57;;;7.60;92.90;;;;;;5001373;28;21039;-81
2023/01/23 06:36:19;;;;;;;8.23;3.92;;;7.60;93.00;;;;;;5004338;28;20483;-80
2023/01/23 06:38:49;;;;;;;7.83;3.20;;;7.60;93.30;;;;;;5005938;28;20206;-78
2023/01/23 06:41:17;;;;;;;6.47;3.10;;;7.50;92.90;;;;;;5015526;28;20433;-80
2023/01/23 06:43:47;;;;;;;7.37;3.60;;;7.50;92.90;;;;;;4998925;28;20233;-80
2023/01/23 06:46:16;;;;;;;6.77;3.20;;;7.50;93.00;;;;;;5017289;28;20377;-78
2023/01/23 06:48:44;;;;;;;7.73;4.30;;;7.50;92.90;;;;;;5004323;28;20232;-79
2023/01/23 06:51:12;;;;;;;7.87;3.57;;;7.50;93.00;;;;;;5006541;28;20614;-80
2023/01/23 06:53:41;;;;;;;9.07;4.47;;;7.50;93.00;;;;;;5003291;28;20234;-79
2023/01/23 06:56:12;;;;;;;10.90;4.53;;;7.50;93.00;;;;;;5000697;28;20261;-79
2023/01/23 06:58:44;;;;;;;8.37;4.77;;;7.50;93.00;;;;;;5003794;28;20199;-79
2023/01/23 07:01:21;;;;;;;12.80;5.53;;;7.40;92.90;;;;;;5007158;28;20199;-80
2023/01/23 07:03:49;;;;;;;9.67;5.63;;;7.50;93.00;;;;;;5017965;28;20199;-78
2023/01/23 07:06:18;;;;;;;8.03;4.13;;;7.40;93.00;;;;;;5007623;28;20580;-80
2023/01/23 07:08:46;;;;;;;8.57;3.70;;;7.40;93.00;;;;;;5002750;28;20251;-77
2023/01/23 07:11:16;;;;;;;9.17;4.17;;;7.30;92.90;;;;;;5013277;28;20246;-79
2023/01/23 07:13:45;;;;;;;8.60;4.07;;;7.30;92.90;;;;;;5003578;28;20196;-79
2023/01/23 07:16:13;;;;;;;6.53;3.20;;;7.30;92.90;;;;;;4997090;28;20762;-81
2023/01/23 07:18:41;;;;;;;7.53;3.30;;;7.30;92.80;;;;;;5009881;28;20204;-78
2023/01/23 07:21:10;;;;;;;6.37;2.97;;;7.30;92.70;;;;;;5018184;28;20208;-78
2023/01/23 07:23:38;;;;;;;6.03;2.97;;;7.30;92.50;;;;;;5004638;28;20210;-81
2023/01/23 07:26:08;;;;;;;6.93;3.00;;;7.30;92.60;;;;;;5012255;28;20233;-80
2023/01/23 07:28:38;;;;;;;6.93;3.23;;;7.30;92.70;;;;;;4999824;28;20295;-84
2023/01/23 07:31:07;;;;;;;7.10;3.30;;;7.30;92.80;;;;;;5015834;28;20259;-79
2023/01/23 07:33:35;;;;;;;6.77;2.57;;;7.20;92.70;;;;;;5010784;28;20246;-81
2023/01/23 07:36:05;;;;;;;6.35;3.10;;;7.20;92.60;;;;;;5003358;28;20441;-79
2023/01/23 07:38:35;;;;;;;4.70;2.43;;;7.20;92.70;;;;;;5000321;28;20666;-79
2023/01/23 07:41:03;;;;;;;4.67;2.30;;;7.30;92.80;;;;;;5008465;28;20253;-79
2023/01/23 07:43:32;;;;;;;4.73;2.57;;;7.20;92.50;;;;;;4997208;28;20248;-79
2023/01/23 07:46:02;;;;;;;6.40;3.00;;;7.30;92.60;;;;;;5019675;28;20219;-78
2023/01/23 07:48:31;;;;;;;7.23;2.80;;;7.20;92.40;;;;;;5014242;28;20208;-80
2023/01/23 07:51:02;;;;;;;5.83;2.90;;;7.30;92.50;;;;;;5001842;28;20716;-81
2023/01/23 07:53:31;;;;;;;7.93;3.17;;;7.30;92.60;;;;;;4954616;28;1348887;-81
2023/01/23 07:56:01;;;;;;;5.17;2.47;;;7.30;92.50;;;;;;5024044;28;20200;-77
2023/01/23 07:58:29;;;;;;;6.50;2.90;;;7.30;92.40;;;;;;5018400;28;20192;-78
2023/01/23 08:00:57;;;;;;;6.60;3.23;;;7.30;92.50;;;;;;5004144;28;20255;-78
2023/01/23 08:03:28;;;;;;;7.70;3.03;;;7.30;92.50;;;;;;5001664;28;20212;-77
2023/01/23 08:05:58;;;;;;;6.33;3.20;;;7.30;92.60;;;;;;5009110;28;20661;-77
2023/01/23 08:08:26;;;;;;;9.87;4.10;;;7.30;92.70;;;;;;5020688;28;20246;-78
2023/01/23 08:10:55;;;;;;;7.43;3.47;;;7.30;92.90;;;;;;4999276;28;20740;-79
2023/01/23 08:13:23;;;;;;;7.70;3.50;;;7.30;93.20;;;;;;5002220;28;20294;-78
2023/01/23 08:15:53;;;;;;;10.60;4.10;;;7.40;93.20;;;;;;5006161;28;20280;-79
2023/01/23 08:18:21;;;;;;;6.37;3.33;;;7.50;93.10;;;;;;5015114;28;20222;-79
2023/01/23 08:20:55;;;;;;;7.47;3.40;;;7.50;92.70;;;;;;5019381;28;20205;-79
2023/01/23 08:23:25;;;;;;;5.63;2.67;;;7.60;93.00;;;;;;5005777;28;20192;-78
2023/01/23 08:25:54;;;;;;;5.27;3.00;;;7.60;92.30;;;;;;5005687;28;20302;-78
2023/01/23 08:28:23;;;;;;;5.47;2.63;;;7.70;92.10;;;;;;5008639;28;20195;-79
2023/01/23 08:30:51;;;;;;;5.23;3.07;;;7.60;91.70;;;;;;5025229;28;20253;-81
2023/01/23 08:33:21;;;;;;;7.43;2.17;;;7.60;91.80;;;;;;5001928;28;20197;-81
2023/01/23 08:35:50;;;;;;;6.67;2.80;;;7.70;91.80;;;;;;5001758;28;20590;-80
2023/01/23 08:38:20;;;;;;;4.90;2.60;;;7.70;91.80;;;;;;5000472;28;20941;-79
2023/01/23 08:40:50;;;;;;;6.30;3.10;;;7.70;91.80;;;;;;5002114;28;20621;-81
2023/01/23 08:43:20;;;;;;;6.80;3.10;;;7.80;91.80;;;;;;5017841;28;20259;-80
2023/01/23 08:45:49;;;;;;;5.90;3.10;;;7.80;91.60;;;;;;5025680;28;20200;-81
2023/01/23 08:48:18;;;;;;;4.37;2.03;;;7.80;91.70;;;;;;5008697;28;20657;-79
2023/01/23 08:50:47;;;;;;;5.03;2.77;;;7.80;91.70;;;;;;4997709;28;20201;-80
2023/01/23 08:53:16;;;;;;;6.13;3.23;;;7.80;91.80;;;;;;5005341;28;20234;-78
2023/01/23 08:55:46;;;;;;;6.57;3.10;;;7.90;91.80;;;;;;5008257;28;20605;-80
2023/01/23 08:58:14;;;;;;;6.33;2.90;;;8.00;91.80;;;;;;5019650;28;20290;-81
2023/01/23 09:00:42;;;;;;;4.73;2.33;;;8.00;91.50;;;;;;5010052;28;20196;-79
2023/01/23 09:03:11;;;;;;;7.37;2.67;;;8.00;91.60;;;;;;5005867;28;20247;-79
2023/01/23 09:05:39;;;;;;;6.73;3.27;;;8.00;91.70;;;;;;5013729;28;20227;-79
2023/01/23 09:08:07;;;;;;;5.60;2.87;;;8.10;91.60;;;;;;5016727;28;20192;-80
2023/01/23 09:10:36;;;;;;;5.90;3.00;;;8.10;91.30;;;;;;5018745;28;20200;-82
2023/01/23 09:13:06;;;;;;;5.40;2.70;;;8.10;91.50;;;;;;5008959;28;20542;-82
2023/01/23 09:15:34;;;;;;;5.23;2.60;;;8.00;91.40;;;;;;4994141;28;20204;-81
2023/01/23 09:18:03;;;;;;;6.70;2.60;;;8.00;91.10;;;;;;4997465;28;20488;-79
2023/01/23 09:20:32;;;;;;;6.63;2.57;;;8.00;91.10;;;;;;5005542;28;20204;-79
2023/01/23 09:23:00;;;;;;;3.33;1.93;;;7.90;91.20;;;;;;5007796;28;20200;-81
2023/01/23 09:25:30;;;;;;;6.10;2.83;;;7.90;91.50;;;;;;5009267;28;20263;-79
2023/01/23 09:27:59;;;;;;;4.03;2.20;;;8.00;91.60;;;;;;5006370;28;20201;-80
2023/01/23 09:30:35;;;;;;;4.67;2.70;;;8.00;91.50;;;;;;5001214;28;20205;-81
2023/01/23 09:33:04;;;;;;;5.10;2.80;;;8.10;91.30;;;;;;5006369;28;20192;-80
2023/01/23 09:35:32;;;;;;;5.13;2.60;;;8.10;91.40;;;;;;5017919;28;20479;-79
2023/01/23 09:38:03;;;;;;;4.03;2.17;;;8.20;91.40;;;;;;5007927;28;20732;-80
2023/01/23 09:40:34;;;;;;;3.87;2.43;;;8.20;91.40;;;;;;5008962;28;20617;-79
2023/01/23 09:43:14;;;;;;;8.20;2.73;;;8.30;91.40;;;;;;5010995;28;20269;-80
2023/01/23 09:45:52;;;;;;;4.87;2.17;;;8.20;91.30;;;;;;5016101;28;20253;-79
2023/01/23 09:48:27;;;;;;;5.03;2.37;;;8.30;91.20;;;;;;5006391;28;20199;-80
2023/01/23 09:51:00;;;;;;;5.07;2.00;;;8.40;91.40;;;;;;5008960;28;20711;-81
2023/01/23 09:53:35;;;;;;;4.97;2.50;;;8.30;90.90;;;;;;5014177;28;20611;-79
2023/01/23 09:56:13;;;;;;;7.57;2.50;;;8.30;91.00;;;;;;4994234;28;20200;-79
2023/01/23 09:58:47;;;;;;;4.27;2.33;;;8.30;90.80;;;;;;4993074;28;20220;-79
2023/01/23 10:01:17;;;;;;;5.37;2.70;;;8.30;90.90;;;;;;5006338;28;20188;-80
2023/01/23 10:03:46;;;;;;;6.43;2.80;;;8.30;90.70;;;;;;5001241;28;20231;-80
2023/01/23 10:06:22;;;;;;;8.23;3.20;;;8.30;91.00;;;;;;5004188;28;20614;-79
2023/01/23 10:09:09;;;;;;;3.57;1.80;;;8.40;90.90;;;;;;5001447;28;20249;-78
2023/01/23 10:11:46;;;;;;;8.23;2.67;;;8.40;90.80;;;;;;5004755;28;20246;-82
2023/01/23 10:14:30;;;;;;;4.97;2.17;;;8.40;90.90;;;;;;4960618;28;20192;-80
2023/01/23 10:17:12;;;;;;;6.13;1.87;;;8.30;90.90;;;;;;5009529;28;20201;-82
2023/01/23 10:19:58;;;;;;;3.63;2.00;;;8.40;90.90;;;;;;5012988;28;20262;-80
2023/01/23 10:22:39;;;;;;;5.67;2.30;;;8.40;90.80;;;;;;5002010;28;20201;-82
2023/01/23 10:25:16;;;;;;;4.67;2.00;;;8.40;91.00;;;;;;5007536;28;20188;-82
2023/01/23 10:27:46;;;;;;;5.70;2.40;;;8.30;90.80;;;;;;4991486;28;20206;-82
2023/01/23 10:30:25;;;;;;;5.57;2.80;;;8.30;90.80;;;;;;5003232;28;20552;-80
2023/01/23 10:32:59;;;;;;;5.20;2.40;;;8.20;90.90;;;;;;5005944;28;20211;-82
2023/01/23 10:35:35;;;;;;;5.20;2.40;;;8.20;91.10;;;;;;5006325;28;20196;-82
2023/01/23 10:38:12;;;;;;;6.87;2.83;;;8.20;91.20;;;;;;5001424;28;20308;-77
2023/01/23 10:43:31;;;;;;;6.27;2.37;;;8.30;91.00;;;;;;4998790;28;20617;-79
2023/01/23 10:45:59;;;;;;;5.13;2.10;;;8.20;91.10;;;;;;5010774;28;20772;-81
2023/01/23 10:48:41;;;;;;;3.37;1.70;;;8.10;91.40;;;;;;5009434;28;20203;-79
2023/01/23 10:51:30;;;;;;;5.67;2.60;;;8.00;91.10;;;;;;5005780;28;20275;-79
2023/01/23 10:54:06;;;;;;;5.97;2.40;;;8.00;91.20;;;;;;5006953;28;20239;-79
2023/01/23 10:56:45;;;;;;;7.43;2.80;;;7.90;91.20;;;;;;5011789;28;20248;-80
2023/01/23 10:59:21;;;;;;;5.57;2.40;;;8.00;91.30;;;;;;5003022;28;20211;-79
2023/01/23 11:01:58;;;;;;;4.80;2.13;;;7.90;91.30;;;;;;4999491;28;20611;-77
2023/01/23 11:04:32;;;;;;;4.83;2.13;;;7.90;91.40;;;;;;4998627;28;20192;-78
2023/01/23 11:07:07;;;;;;;6.80;2.67;;;7.90;91.50;;;;;;5006499;28;20201;-81
2023/01/23 11:09:47;;;;;;;5.23;3.03;;;7.90;91.50;;;;;;5011256;28;20576;-79
2023/01/23 11:12:18;;;;;;;7.70;3.10;;;7.90;91.50;;;;;;5004845;28;21409;-77
2023/01/23 11:14:47;;;;;;;5.03;2.33;;;7.90;91.60;;;;;;5011487;28;20192;-81
2023/01/23 11:17:22;;;;;;;5.97;2.60;;;7.80;91.60;;;;;;5004876;28;20205;-77
2023/01/23 11:19:53;;;;;;;7.87;2.27;;;7.70;91.70;;;;;;5007984;28;20214;-78
2023/01/23 11:22:31;;;;;;;6.53;2.50;;;7.70;91.60;;;;;;5004073;28;20197;-79
2023/01/23 11:25:00;;;;;;;6.23;2.30;;;7.70;91.70;;;;;;5020281;28;20223;-80
2023/01/23 11:27:30;;;;;;;4.57;2.43;;;7.70;91.60;;;;;;5013985;28;20208;-79
2023/01/23 11:30:28;;;;;;;4.87;2.57;;;7.70;91.60;;;;;;5006885;28;20223;-80
2023/01/23 11:32:59;;;;;;;6.10;2.80;;;7.70;91.70;;;;;;5001511;28;20196;-80
2023/01/23 11:35:51;;;;;;;5.93;2.60;;;7.70;91.80;;;;;;5007098;28;20200;-80
2023/01/23 11:38:25;;;;;;;4.83;2.10;;;7.60;91.70;;;;;;5006131;28;20572;-80
2023/01/23 11:40:58;;;;;;;5.30;2.53;;;7.60;91.70;;;;;;5013190;28;20188;-80
2023/01/23 11:43:27;;;;;;;6.33;3.10;;;7.60;91.60;;;;;;5003365;28;20650;-79
2023/01/23 11:46:31;;;;;;;5.50;2.90;;;7.50;91.60;;;;;;5010793;28;20193;-80
2023/01/23 11:49:23;;;;;;;7.13;3.13;;;7.60;91.60;;;;;;4925152;28;20254;-80
2023/01/23 11:52:06;;;;;;;7.80;3.50;;;7.50;91.60;;;;;;5003622;28;20204;-79
2023/01/23 11:54:52;;;;;;;7.28;3.85;;;7.50;91.70;;;;;;5005204;28;20456;-79
2023/01/23 11:57:31;;;;;;;10.80;3.80;;;7.50;91.90;;;;;;5013065;28;20192;-78
2023/01/23 12:00:22;;;;;;;9.10;3.73;;;7.50;91.80;;;;;;5007230;28;20256;-77
2023/01/23 12:03:33;;;;;;;8.10;3.40;;;7.40;91.80;;;;;;4999724;28;20220;-78
2023/01/23 12:06:19;;;;;;;9.32;4.40;;;7.40;91.80;;;;;;4998704;28;20440;-81
2023/01/23 12:08:55;;;;;;;8.67;4.03;;;7.40;92.40;;;;;;5013570;28;20214;-78
2023/01/23 12:11:24;;;;;;;10.33;4.50;;;7.50;92.30;;;;;;5007392;28;20247;-79
2023/01/23 12:14:12;;;;;;;9.97;4.40;;;7.40;92.10;;;;;;5005040;28;20669;-79
2023/01/23 12:17:07;;;;;;;7.57;3.70;;;7.40;92.20;;;;;;5001657;28;20551;-77
2023/01/23 12:19:51;;;;;;;5.83;2.87;;;7.40;92.30;;;;;;5004285;28;20207;-79
2023/01/23 12:22:29;;;;;;;7.23;3.47;;;7.40;92.10;;;;;;5012629;28;20208;-80
2023/01/23 12:25:10;;;;;;;7.63;3.70;;;7.40;92.00;;;;;;4996564;28;20731;-78
2023/01/23 12:27:42;;;;;;;9.17;3.87;;;7.40;91.90;;;;;;4999341;28;20200;-78
2023/01/23 12:30:38;;;;;;;8.37;3.10;;;7.50;91.90;;;;;;5018088;28;20542;-81
2023/01/23 12:33:21;;;;;;;6.03;3.27;;;7.40;91.70;;;;;;5006173;28;20196;-79
2023/01/23 12:35:58;;;;;;;8.90;3.90;;;7.50;91.70;;;;;;5004003;28;20257;-79
2023/01/23 12:38:31;;;;;;;7.83;3.57;;;7.50;91.60;;;;;;5000530;28;20211;-78
2023/01/23 12:41:12;;;;;;;8.73;3.90;;;7.40;91.70;;;;;;5007734;28;20195;-79
2023/01/23 12:43:50;;;;;;;9.00;4.90;;;7.50;91.60;;;;;;5005157;28;20198;-76
2023/01/23 12:46:26;;;;;;;8.70;3.03;;;7.50;91.60;;;;;;5012293;28;20564;-77
2023/01/23 12:49:02;;;;;;;6.40;3.13;;;7.40;91.60;;;;;;5006642;28;20226;-79
2023/01/23 12:51:36;;;;;;;6.20;3.47;;;7.40;91.60;;;;;;5023336;28;20205;-78
2023/01/23 12:54:12;;;;;;;7.27;3.50;;;7.50;91.60;;;;;;5003942;28;20239;-80
2023/01/23 12:56:44;;;;;;;10.93;3.33;;;7.50;91.50;;;;;;5005121;28;20196;-78
2023/01/23 12:59:22;;;;;;;7.53;3.40;;;7.50;91.50;;;;;;4994626;28;20219;-79
2023/01/23 13:02:00;;;;;;;10.00;4.53;;;7.50;91.50;;;;;;5009976;28;20204;-77
2023/01/23 13:04:47;;;;;;;8.57;3.57;;;7.50;91.30;;;;;;5005318;28;20211;-79
2023/01/23 13:07:31;;;;;;;7.63;4.03;;;7.50;91.20;;;;;;4996312;28;20246;-80
2023/01/23 13:11:39;;;;;;;6.00;2.53;;;7.40;91.10;;;;;;5013489;28;20231;-80
2023/01/23 13:13:20;;;;;;;7.40;3.57;;;7.50;91.20;;;;;;5003553;28;20215;-77
2023/01/23 13:16:11;;;;;;;8.60;3.67;;;7.30;91.10;;;;;;4998854;28;20244;-78
2023/01/23 13:27:43;;;;;;;13.47;5.07;;;7.30;91.00;;;;;;4995806;28;20255;-78
2023/01/23 13:30:44;;;;;;;9.63;4.47;;;7.30;91.10;;;;;;5002991;28;20254;-79
2023/01/23 13:33:48;;;;;;;9.17;3.87;;;7.40;91.10;;;;;;4955711;28;20209;-79
2023/01/23 13:36:25;;;;;;;10.97;4.07;;;7.30;91.00;;;;;;5006245;28;20212;-78
2023/01/23 13:39:23;;;;;;;13.27;4.27;;;7.20;91.00;;;;;;5002414;28;20218;-78
2023/01/23 13:42:12;;;;;;;10.50;3.37;;;7.20;91.10;;;;;;5012023;28;20192;-78